<?xml version="1.0" encoding="UTF-8" standalone="no" ?>
<gpx xmlns="http://www.topografix.com/GPX/1/1" xmlns:xsi="http://www.w3.org/2001/XMLSchema-instance" xsi:schemaLocation="http://www.topografix.com/GPX/1/1 http://www.topografix.com/GPX/1/1/gpx.xsd" version="1.1" creator="VisuGPX - https://www.visugpx.com">
  <metadata>
    <name>Cabanes de la lit 2020-05-31 09:08:12</name>
    <desc><![CDATA[File with points/tracks from Locus Map/3.45.1]]></desc>
  </metadata>
  <wpt lat="42.97133" lon="0.08424">
    <ele>1491</ele>
    <name><![CDATA[Point 1 cabane de la Lit]]></name>
  </wpt>
  <trk>
    <name><![CDATA[Cabanes2020-05-31 09:08:12]]></name>
    <extensions>
      <line xmlns="http://www.topografix.com/GPX/gpx_style/0/2">
        <color>0000FF</color>
        <opacity>0.59</opacity>
        <width>6.0</width>
      </line>
    </extensions>
    <trkseg>
      <trkpt lat="42.96655" lon="0.09437">
        <ele>952.07</ele>
        <time>2020-05-31T07:19:02.000Z</time>
      </trkpt>
      <trkpt lat="42.96561" lon="0.09413">
        <ele>888.94</ele>
        <time>2020-05-31T07:21:11.000Z</time>
      </trkpt>
      <trkpt lat="42.96579" lon="0.09394">
        <ele>1060.7</ele>
        <time>2020-05-31T07:21:41.000Z</time>
      </trkpt>
      <trkpt lat="42.96589" lon="0.0937">
        <ele>1060.77</ele>
        <time>2020-05-31T07:22:11.000Z</time>
      </trkpt>
      <trkpt lat="42.9661" lon="0.09373">
        <ele>1065.61</ele>
        <time>2020-05-31T07:22:41.000Z</time>
      </trkpt>
      <trkpt lat="42.96625" lon="0.09385">
        <ele>1066.51</ele>
        <time>2020-05-31T07:23:11.000Z</time>
      </trkpt>
      <trkpt lat="42.96644" lon="0.09412">
        <ele>1073.64</ele>
        <time>2020-05-31T07:23:41.000Z</time>
      </trkpt>
      <trkpt lat="42.96658" lon="0.09431">
        <ele>1081.68</ele>
        <time>2020-05-31T07:24:11.000Z</time>
      </trkpt>
      <trkpt lat="42.96668" lon="0.09443">
        <ele>1075.7</ele>
        <time>2020-05-31T07:24:41.000Z</time>
      </trkpt>
      <trkpt lat="42.96683" lon="0.09449">
        <ele>1075.71</ele>
        <time>2020-05-31T07:25:11.000Z</time>
      </trkpt>
      <trkpt lat="42.96702" lon="0.09466">
        <ele>1076.69</ele>
        <time>2020-05-31T07:25:41.000Z</time>
      </trkpt>
      <trkpt lat="42.96712" lon="0.09473">
        <ele>1078.26</ele>
        <time>2020-05-31T07:26:12.000Z</time>
      </trkpt>
      <trkpt lat="42.96729" lon="0.09477">
        <ele>1088.45</ele>
        <time>2020-05-31T07:26:42.000Z</time>
      </trkpt>
      <trkpt lat="42.96758" lon="0.09483">
        <ele>1087.13</ele>
        <time>2020-05-31T07:27:12.000Z</time>
      </trkpt>
      <trkpt lat="42.96767" lon="0.09495">
        <ele>1092.7</ele>
        <time>2020-05-31T07:27:42.000Z</time>
      </trkpt>
      <trkpt lat="42.96778" lon="0.09516">
        <ele>1090.65</ele>
        <time>2020-05-31T07:28:12.000Z</time>
      </trkpt>
      <trkpt lat="42.9679" lon="0.0953">
        <ele>1098.39</ele>
        <time>2020-05-31T07:28:42.000Z</time>
      </trkpt>
      <trkpt lat="42.96803" lon="0.09533">
        <ele>1095.7</ele>
        <time>2020-05-31T07:29:12.000Z</time>
      </trkpt>
      <trkpt lat="42.96816" lon="0.09542">
        <ele>1095.45</ele>
        <time>2020-05-31T07:29:50.000Z</time>
      </trkpt>
      <trkpt lat="42.96844" lon="0.09559">
        <ele>1106.64</ele>
        <time>2020-05-31T07:30:20.000Z</time>
      </trkpt>
      <trkpt lat="42.96853" lon="0.09561">
        <ele>1110.96</ele>
        <time>2020-05-31T07:31:05.000Z</time>
      </trkpt>
      <trkpt lat="42.96888" lon="0.09566">
        <ele>1122.91</ele>
        <time>2020-05-31T07:31:35.000Z</time>
      </trkpt>
      <trkpt lat="42.96897" lon="0.09571">
        <ele>1128.46</ele>
        <time>2020-05-31T07:32:27.000Z</time>
      </trkpt>
      <trkpt lat="42.96925" lon="0.09581">
        <ele>1129.77</ele>
        <time>2020-05-31T07:32:57.000Z</time>
      </trkpt>
      <trkpt lat="42.96935" lon="0.09586">
        <ele>1132.33</ele>
        <time>2020-05-31T07:33:33.000Z</time>
      </trkpt>
      <trkpt lat="42.96949" lon="0.09589">
        <ele>1132.02</ele>
        <time>2020-05-31T07:34:03.000Z</time>
      </trkpt>
      <trkpt lat="42.96973" lon="0.09597">
        <ele>1132.46</ele>
        <time>2020-05-31T07:34:33.000Z</time>
      </trkpt>
      <trkpt lat="42.9699" lon="0.0961">
        <ele>1138.83</ele>
        <time>2020-05-31T07:35:03.000Z</time>
      </trkpt>
      <trkpt lat="42.97002" lon="0.09632">
        <ele>1147.64</ele>
        <time>2020-05-31T07:35:33.000Z</time>
      </trkpt>
      <trkpt lat="42.97016" lon="0.09647">
        <ele>1148.45</ele>
        <time>2020-05-31T07:36:03.000Z</time>
      </trkpt>
      <trkpt lat="42.9703" lon="0.09651">
        <ele>1151.48</ele>
        <time>2020-05-31T07:36:33.000Z</time>
      </trkpt>
      <trkpt lat="42.97039" lon="0.09652">
        <ele>1150.02</ele>
        <time>2020-05-31T07:37:16.000Z</time>
      </trkpt>
      <trkpt lat="42.97065" lon="0.09656">
        <ele>1153.48</ele>
        <time>2020-05-31T07:37:46.000Z</time>
      </trkpt>
      <trkpt lat="42.97075" lon="0.09661">
        <ele>1155.71</ele>
        <time>2020-05-31T07:38:16.000Z</time>
      </trkpt>
      <trkpt lat="42.97083" lon="0.09671">
        <ele>1161.72</ele>
        <time>2020-05-31T07:38:46.000Z</time>
      </trkpt>
      <trkpt lat="42.97112" lon="0.09673">
        <ele>1165.7</ele>
        <time>2020-05-31T07:39:16.000Z</time>
      </trkpt>
      <trkpt lat="42.97122" lon="0.09668">
        <ele>1164.65</ele>
        <time>2020-05-31T07:42:24.000Z</time>
      </trkpt>
      <trkpt lat="42.97147" lon="0.09654">
        <ele>1176.42</ele>
        <time>2020-05-31T07:42:54.000Z</time>
      </trkpt>
      <trkpt lat="42.97164" lon="0.09646">
        <ele>1189.47</ele>
        <time>2020-05-31T07:43:24.000Z</time>
      </trkpt>
      <trkpt lat="42.97172" lon="0.0963">
        <ele>1196.62</ele>
        <time>2020-05-31T07:43:54.000Z</time>
      </trkpt>
      <trkpt lat="42.97159" lon="0.09634">
        <ele>1192.46</ele>
        <time>2020-05-31T07:44:24.000Z</time>
      </trkpt>
      <trkpt lat="42.97147" lon="0.09634">
        <ele>1195.22</ele>
        <time>2020-05-31T07:45:14.000Z</time>
      </trkpt>
      <trkpt lat="42.97131" lon="0.09621">
        <ele>1200.6</ele>
        <time>2020-05-31T07:45:44.000Z</time>
      </trkpt>
      <trkpt lat="42.97122" lon="0.09613">
        <ele>1200.72</ele>
        <time>2020-05-31T07:46:14.000Z</time>
      </trkpt>
      <trkpt lat="42.97121" lon="0.09596">
        <ele>1193.58</ele>
        <time>2020-05-31T07:47:22.000Z</time>
      </trkpt>
      <trkpt lat="42.97112" lon="0.09582">
        <ele>1190.45</ele>
        <time>2020-05-31T07:47:52.000Z</time>
      </trkpt>
      <trkpt lat="42.97097" lon="0.09568">
        <ele>1201.7</ele>
        <time>2020-05-31T07:48:22.000Z</time>
      </trkpt>
      <trkpt lat="42.97084" lon="0.09544">
        <ele>1209.78</ele>
        <time>2020-05-31T07:48:52.000Z</time>
      </trkpt>
      <trkpt lat="42.97077" lon="0.09525">
        <ele>1213.67</ele>
        <time>2020-05-31T07:49:22.000Z</time>
      </trkpt>
      <trkpt lat="42.9707" lon="0.09512">
        <ele>1221.75</ele>
        <time>2020-05-31T07:49:52.000Z</time>
      </trkpt>
      <trkpt lat="42.97066" lon="0.09498">
        <ele>1220.96</ele>
        <time>2020-05-31T07:50:22.000Z</time>
      </trkpt>
      <trkpt lat="42.97063" lon="0.09458">
        <ele>1218.49</ele>
        <time>2020-05-31T07:50:52.000Z</time>
      </trkpt>
      <trkpt lat="42.97055" lon="0.09431">
        <ele>1226.46</ele>
        <time>2020-05-31T07:51:22.000Z</time>
      </trkpt>
      <trkpt lat="42.97044" lon="0.09423">
        <ele>1241.71</ele>
        <time>2020-05-31T07:51:52.000Z</time>
      </trkpt>
      <trkpt lat="42.97033" lon="0.09415">
        <ele>1240.54</ele>
        <time>2020-05-31T07:52:22.000Z</time>
      </trkpt>
      <trkpt lat="42.97024" lon="0.09409">
        <ele>1241.48</ele>
        <time>2020-05-31T07:53:24.000Z</time>
      </trkpt>
      <trkpt lat="42.97018" lon="0.09399">
        <ele>1241.96</ele>
        <time>2020-05-31T07:53:55.000Z</time>
      </trkpt>
      <trkpt lat="42.97006" lon="0.09353">
        <ele>1244.49</ele>
        <time>2020-05-31T07:54:25.000Z</time>
      </trkpt>
      <trkpt lat="42.97005" lon="0.0934">
        <ele>1250.53</ele>
        <time>2020-05-31T07:55:02.000Z</time>
      </trkpt>
      <trkpt lat="42.9701" lon="0.0932">
        <ele>1252.98</ele>
        <time>2020-05-31T07:55:32.000Z</time>
      </trkpt>
      <trkpt lat="42.97004" lon="0.09299">
        <ele>1251.71</ele>
        <time>2020-05-31T07:56:02.000Z</time>
      </trkpt>
      <trkpt lat="42.97005" lon="0.09286">
        <ele>1250.91</ele>
        <time>2020-05-31T07:57:27.000Z</time>
      </trkpt>
      <trkpt lat="42.96999" lon="0.0926">
        <ele>1256.71</ele>
        <time>2020-05-31T07:57:57.000Z</time>
      </trkpt>
      <trkpt lat="42.96999" lon="0.09227">
        <ele>1257.36</ele>
        <time>2020-05-31T07:58:27.000Z</time>
      </trkpt>
      <trkpt lat="42.9699" lon="0.09212">
        <ele>1266.81</ele>
        <time>2020-05-31T07:58:57.000Z</time>
      </trkpt>
      <trkpt lat="42.96978" lon="0.09197">
        <ele>1274.58</ele>
        <time>2020-05-31T07:59:27.000Z</time>
      </trkpt>
      <trkpt lat="42.96972" lon="0.09179">
        <ele>1274.58</ele>
        <time>2020-05-31T07:59:57.000Z</time>
      </trkpt>
      <trkpt lat="42.96971" lon="0.09167">
        <ele>1274.79</ele>
        <time>2020-05-31T08:00:51.000Z</time>
      </trkpt>
      <trkpt lat="42.96958" lon="0.09131">
        <ele>1288.51</ele>
        <time>2020-05-31T08:01:21.000Z</time>
      </trkpt>
      <trkpt lat="42.96952" lon="0.09111">
        <ele>1292.9</ele>
        <time>2020-05-31T08:01:51.000Z</time>
      </trkpt>
      <trkpt lat="42.96946" lon="0.09093">
        <ele>1290.53</ele>
        <time>2020-05-31T08:02:21.000Z</time>
      </trkpt>
      <trkpt lat="42.96937" lon="0.09063">
        <ele>1295.91</ele>
        <time>2020-05-31T08:02:51.000Z</time>
      </trkpt>
      <trkpt lat="42.96928" lon="0.09046">
        <ele>1306.96</ele>
        <time>2020-05-31T08:03:21.000Z</time>
      </trkpt>
      <trkpt lat="42.96927" lon="0.09009">
        <ele>1300.7</ele>
        <time>2020-05-31T08:03:51.000Z</time>
      </trkpt>
      <trkpt lat="42.96931" lon="0.08995">
        <ele>1308.46</ele>
        <time>2020-05-31T08:05:07.000Z</time>
      </trkpt>
      <trkpt lat="42.96929" lon="0.08974">
        <ele>1313.15</ele>
        <time>2020-05-31T08:05:37.000Z</time>
      </trkpt>
      <trkpt lat="42.96928" lon="0.08944">
        <ele>1311.17</ele>
        <time>2020-05-31T08:06:07.000Z</time>
      </trkpt>
      <trkpt lat="42.96927" lon="0.08927">
        <ele>1310.51</ele>
        <time>2020-05-31T08:06:37.000Z</time>
      </trkpt>
      <trkpt lat="42.96927" lon="0.08898">
        <ele>1308.71</ele>
        <time>2020-05-31T08:07:07.000Z</time>
      </trkpt>
      <trkpt lat="42.96919" lon="0.08878">
        <ele>1315.56</ele>
        <time>2020-05-31T08:07:37.000Z</time>
      </trkpt>
      <trkpt lat="42.96914" lon="0.08867">
        <ele>1316.72</ele>
        <time>2020-05-31T08:08:07.000Z</time>
      </trkpt>
      <trkpt lat="42.96901" lon="0.08837">
        <ele>1323.33</ele>
        <time>2020-05-31T08:08:37.000Z</time>
      </trkpt>
      <trkpt lat="42.9689" lon="0.08815">
        <ele>1336.71</ele>
        <time>2020-05-31T08:09:07.000Z</time>
      </trkpt>
      <trkpt lat="42.96899" lon="0.08783">
        <ele>1342.02</ele>
        <time>2020-05-31T08:09:37.000Z</time>
      </trkpt>
      <trkpt lat="42.96899" lon="0.08759">
        <ele>1338.71</ele>
        <time>2020-05-31T08:10:07.000Z</time>
      </trkpt>
      <trkpt lat="42.969" lon="0.08747">
        <ele>1346.9</ele>
        <time>2020-05-31T08:11:26.000Z</time>
      </trkpt>
      <trkpt lat="42.96901" lon="0.08712">
        <ele>1343.53</ele>
        <time>2020-05-31T08:11:56.000Z</time>
      </trkpt>
      <trkpt lat="42.96886" lon="0.08708">
        <ele>1347.41</ele>
        <time>2020-05-31T08:12:26.000Z</time>
      </trkpt>
      <trkpt lat="42.96881" lon="0.08685">
        <ele>1343.03</ele>
        <time>2020-05-31T08:12:56.000Z</time>
      </trkpt>
      <trkpt lat="42.96876" lon="0.08653">
        <ele>1346.69</ele>
        <time>2020-05-31T08:13:26.000Z</time>
      </trkpt>
      <trkpt lat="42.96884" lon="0.08643">
        <ele>1365.71</ele>
        <time>2020-05-31T08:13:56.000Z</time>
      </trkpt>
      <trkpt lat="42.96894" lon="0.0864">
        <ele>1376.68</ele>
        <time>2020-05-31T08:17:16.000Z</time>
      </trkpt>
      <trkpt lat="42.96913" lon="0.08669">
        <ele>1377.78</ele>
        <time>2020-05-31T08:17:46.000Z</time>
      </trkpt>
      <trkpt lat="42.96921" lon="0.08685">
        <ele>1380.28</ele>
        <time>2020-05-31T08:18:16.000Z</time>
      </trkpt>
      <trkpt lat="42.9694" lon="0.08706">
        <ele>1390.76</ele>
        <time>2020-05-31T08:18:46.000Z</time>
      </trkpt>
      <trkpt lat="42.96958" lon="0.08721">
        <ele>1387.34</ele>
        <time>2020-05-31T08:19:16.000Z</time>
      </trkpt>
      <trkpt lat="42.96965" lon="0.08747">
        <ele>1400.39</ele>
        <time>2020-05-31T08:19:46.000Z</time>
      </trkpt>
      <trkpt lat="42.96976" lon="0.08766">
        <ele>1411.64</ele>
        <time>2020-05-31T08:20:16.000Z</time>
      </trkpt>
      <trkpt lat="42.96992" lon="0.08781">
        <ele>1404.46</ele>
        <time>2020-05-31T08:20:46.000Z</time>
      </trkpt>
      <trkpt lat="42.97018" lon="0.08796">
        <ele>1404.75</ele>
        <time>2020-05-31T08:21:16.000Z</time>
      </trkpt>
      <trkpt lat="42.97018" lon="0.08778">
        <ele>1397.41</ele>
        <time>2020-05-31T08:24:55.000Z</time>
      </trkpt>
      <trkpt lat="42.97018" lon="0.08752">
        <ele>1395.75</ele>
        <time>2020-05-31T08:25:25.000Z</time>
      </trkpt>
      <trkpt lat="42.97019" lon="0.08739">
        <ele>1399.18</ele>
        <time>2020-05-31T08:26:02.000Z</time>
      </trkpt>
      <trkpt lat="42.97017" lon="0.0871">
        <ele>1415.29</ele>
        <time>2020-05-31T08:26:32.000Z</time>
      </trkpt>
      <trkpt lat="42.97025" lon="0.08703">
        <ele>1420.95</ele>
        <time>2020-05-31T08:27:27.000Z</time>
      </trkpt>
      <trkpt lat="42.97038" lon="0.08682">
        <ele>1438.9</ele>
        <time>2020-05-31T08:27:57.000Z</time>
      </trkpt>
      <trkpt lat="42.97046" lon="0.08666">
        <ele>1438.06</ele>
        <time>2020-05-31T08:28:42.000Z</time>
      </trkpt>
      <trkpt lat="42.97052" lon="0.08654">
        <ele>1440.52</ele>
        <time>2020-05-31T08:29:22.000Z</time>
      </trkpt>
      <trkpt lat="42.97047" lon="0.08639">
        <ele>1435.97</ele>
        <time>2020-05-31T08:29:52.000Z</time>
      </trkpt>
      <trkpt lat="42.97047" lon="0.0862">
        <ele>1448.73</ele>
        <time>2020-05-31T08:30:22.000Z</time>
      </trkpt>
      <trkpt lat="42.97047" lon="0.08607">
        <ele>1449.47</ele>
        <time>2020-05-31T08:33:45.000Z</time>
      </trkpt>
      <trkpt lat="42.97041" lon="0.08591">
        <ele>1450.72</ele>
        <time>2020-05-31T08:34:15.000Z</time>
      </trkpt>
      <trkpt lat="42.97041" lon="0.08572">
        <ele>1449.86</ele>
        <time>2020-05-31T08:34:45.000Z</time>
      </trkpt>
      <trkpt lat="42.97042" lon="0.0856">
        <ele>1452.35</ele>
        <time>2020-05-31T08:35:19.000Z</time>
      </trkpt>
      <trkpt lat="42.97036" lon="0.08538">
        <ele>1456.72</ele>
        <time>2020-05-31T08:35:49.000Z</time>
      </trkpt>
      <trkpt lat="42.9703" lon="0.0852">
        <ele>1464.67</ele>
        <time>2020-05-31T08:36:19.000Z</time>
      </trkpt>
      <trkpt lat="42.97026" lon="0.08504">
        <ele>1463.24</ele>
        <time>2020-05-31T08:36:49.000Z</time>
      </trkpt>
      <trkpt lat="42.97031" lon="0.08493">
        <ele>1463.52</ele>
        <time>2020-05-31T08:37:20.000Z</time>
      </trkpt>
      <trkpt lat="42.97039" lon="0.08471">
        <ele>1478.72</ele>
        <time>2020-05-31T08:37:50.000Z</time>
      </trkpt>
      <trkpt lat="42.97047" lon="0.08465">
        <ele>1485.22</ele>
        <time>2020-05-31T08:39:51.000Z</time>
      </trkpt>
      <trkpt lat="42.97064" lon="0.08453">
        <ele>1486.71</ele>
        <time>2020-05-31T08:40:21.000Z</time>
      </trkpt>
      <trkpt lat="42.97087" lon="0.08444">
        <ele>1487.66</ele>
        <time>2020-05-31T08:40:51.000Z</time>
      </trkpt>
      <trkpt lat="42.9711" lon="0.08432">
        <ele>1488.68</ele>
        <time>2020-05-31T08:41:21.000Z</time>
      </trkpt>
      <trkpt lat="42.97128" lon="0.08426">
        <ele>1491.22</ele>
        <time>2020-05-31T08:41:51.000Z</time>
      </trkpt>
      <trkpt lat="42.97133" lon="0.08424">
        <ele>1490.72</ele>
        <time>2020-05-31T08:42:24.000Z</time>
      </trkpt>
      <trkpt lat="42.9714" lon="0.08415">
        <ele>1493.72</ele>
        <time>2020-05-31T08:44:04.000Z</time>
      </trkpt>
      <trkpt lat="42.97153" lon="0.08409">
        <ele>1497.73</ele>
        <time>2020-05-31T08:44:34.000Z</time>
      </trkpt>
      <trkpt lat="42.9715" lon="0.08402">
        <ele>1497.72</ele>
        <time>2020-05-31T08:47:22.000Z</time>
      </trkpt>
      <trkpt lat="42.97159" lon="0.08398">
        <ele>1502.58</ele>
        <time>2020-05-31T08:53:44.000Z</time>
      </trkpt>
      <trkpt lat="42.97166" lon="0.08388">
        <ele>1504.48</ele>
        <time>2020-05-31T08:54:25.000Z</time>
      </trkpt>
      <trkpt lat="42.97169" lon="0.08376">
        <ele>1507.73</ele>
        <time>2020-05-31T08:55:05.000Z</time>
      </trkpt>
      <trkpt lat="42.97178" lon="0.0836">
        <ele>1509</ele>
        <time>2020-05-31T08:55:35.000Z</time>
      </trkpt>
      <trkpt lat="42.97185" lon="0.08351">
        <ele>1514.85</ele>
        <time>2020-05-31T08:56:05.000Z</time>
      </trkpt>
      <trkpt lat="42.97193" lon="0.08344">
        <ele>1518.32</ele>
        <time>2020-05-31T08:56:44.000Z</time>
      </trkpt>
      <trkpt lat="42.97202" lon="0.08345">
        <ele>1521.73</ele>
        <time>2020-05-31T08:57:37.000Z</time>
      </trkpt>
      <trkpt lat="42.97213" lon="0.08341">
        <ele>1528.66</ele>
        <time>2020-05-31T08:58:07.000Z</time>
      </trkpt>
      <trkpt lat="42.97221" lon="0.08333">
        <ele>1532.49</ele>
        <time>2020-05-31T08:58:39.000Z</time>
      </trkpt>
      <trkpt lat="42.97228" lon="0.08321">
        <ele>1535.79</ele>
        <time>2020-05-31T08:59:09.000Z</time>
      </trkpt>
      <trkpt lat="42.97232" lon="0.08309">
        <ele>1537.98</ele>
        <time>2020-05-31T08:59:42.000Z</time>
      </trkpt>
      <trkpt lat="42.97233" lon="0.08293">
        <ele>1538.73</ele>
        <time>2020-05-31T09:00:12.000Z</time>
      </trkpt>
      <trkpt lat="42.97238" lon="0.08283">
        <ele>1537.61</ele>
        <time>2020-05-31T09:00:47.000Z</time>
      </trkpt>
      <trkpt lat="42.97249" lon="0.08259">
        <ele>1542.91</ele>
        <time>2020-05-31T09:01:17.000Z</time>
      </trkpt>
      <trkpt lat="42.97257" lon="0.0824">
        <ele>1543.89</ele>
        <time>2020-05-31T09:01:47.000Z</time>
      </trkpt>
      <trkpt lat="42.97263" lon="0.08232">
        <ele>1547.75</ele>
        <time>2020-05-31T09:03:13.000Z</time>
      </trkpt>
      <trkpt lat="42.97279" lon="0.08213">
        <ele>1551.04</ele>
        <time>2020-05-31T09:03:43.000Z</time>
      </trkpt>
      <trkpt lat="42.97283" lon="0.08201">
        <ele>1545.72</ele>
        <time>2020-05-31T09:05:24.000Z</time>
      </trkpt>
      <trkpt lat="42.97287" lon="0.08183">
        <ele>1547.7</ele>
        <time>2020-05-31T09:05:54.000Z</time>
      </trkpt>
      <trkpt lat="42.97289" lon="0.08164">
        <ele>1550.48</ele>
        <time>2020-05-31T09:06:24.000Z</time>
      </trkpt>
      <trkpt lat="42.97294" lon="0.08148">
        <ele>1548.73</ele>
        <time>2020-05-31T09:06:54.000Z</time>
      </trkpt>
      <trkpt lat="42.97298" lon="0.08135">
        <ele>1548.75</ele>
        <time>2020-05-31T09:07:24.000Z</time>
      </trkpt>
      <trkpt lat="42.97303" lon="0.08114">
        <ele>1550.67</ele>
        <time>2020-05-31T09:07:54.000Z</time>
      </trkpt>
      <trkpt lat="42.97305" lon="0.08091">
        <ele>1554.48</ele>
        <time>2020-05-31T09:08:24.000Z</time>
      </trkpt>
      <trkpt lat="42.973" lon="0.08069">
        <ele>1556.01</ele>
        <time>2020-05-31T09:08:54.000Z</time>
      </trkpt>
      <trkpt lat="42.97293" lon="0.08059">
        <ele>1566.78</ele>
        <time>2020-05-31T09:09:49.000Z</time>
      </trkpt>
      <trkpt lat="42.97288" lon="0.08045">
        <ele>1570.73</ele>
        <time>2020-05-31T09:10:19.000Z</time>
      </trkpt>
      <trkpt lat="42.97288" lon="0.08032">
        <ele>1571.5</ele>
        <time>2020-05-31T09:11:10.000Z</time>
      </trkpt>
      <trkpt lat="42.97283" lon="0.08009">
        <ele>1573.79</ele>
        <time>2020-05-31T09:11:40.000Z</time>
      </trkpt>
      <trkpt lat="42.97278" lon="0.07998">
        <ele>1574.55</ele>
        <time>2020-05-31T09:13:25.000Z</time>
      </trkpt>
      <trkpt lat="42.97268" lon="0.08002">
        <ele>1580.75</ele>
        <time>2020-05-31T09:16:41.000Z</time>
      </trkpt>
      <trkpt lat="42.97262" lon="0.08012">
        <ele>1574.47</ele>
        <time>2020-05-31T09:18:06.000Z</time>
      </trkpt>
      <trkpt lat="42.97251" lon="0.08008">
        <ele>1578.67</ele>
        <time>2020-05-31T09:18:36.000Z</time>
      </trkpt>
      <trkpt lat="42.97248" lon="0.07996">
        <ele>1580.04</ele>
        <time>2020-05-31T09:19:11.000Z</time>
      </trkpt>
      <trkpt lat="42.9725" lon="0.07975">
        <ele>1586.73</ele>
        <time>2020-05-31T09:19:41.000Z</time>
      </trkpt>
      <trkpt lat="42.97246" lon="0.07964">
        <ele>1591.67</ele>
        <time>2020-05-31T09:20:21.000Z</time>
      </trkpt>
      <trkpt lat="42.97248" lon="0.07951">
        <ele>1594.74</ele>
        <time>2020-05-31T09:20:55.000Z</time>
      </trkpt>
      <trkpt lat="42.97248" lon="0.07939">
        <ele>1599.67</ele>
        <time>2020-05-31T09:21:37.000Z</time>
      </trkpt>
      <trkpt lat="42.97247" lon="0.07921">
        <ele>1605.73</ele>
        <time>2020-05-31T09:24:36.000Z</time>
      </trkpt>
      <trkpt lat="42.97249" lon="0.07895">
        <ele>1604.54</ele>
        <time>2020-05-31T09:25:06.000Z</time>
      </trkpt>
      <trkpt lat="42.97243" lon="0.0788">
        <ele>1604.48</ele>
        <time>2020-05-31T09:25:36.000Z</time>
      </trkpt>
      <trkpt lat="42.97234" lon="0.07862">
        <ele>1606.97</ele>
        <time>2020-05-31T09:26:06.000Z</time>
      </trkpt>
      <trkpt lat="42.97227" lon="0.07848">
        <ele>1610.73</ele>
        <time>2020-05-31T09:26:36.000Z</time>
      </trkpt>
      <trkpt lat="42.97218" lon="0.0783">
        <ele>1608.75</ele>
        <time>2020-05-31T09:27:06.000Z</time>
      </trkpt>
      <trkpt lat="42.9721" lon="0.07825">
        <ele>1617.98</ele>
        <time>2020-05-31T09:28:44.000Z</time>
      </trkpt>
      <trkpt lat="42.97194" lon="0.07814">
        <ele>1615.04</ele>
        <time>2020-05-31T09:29:14.000Z</time>
      </trkpt>
      <trkpt lat="42.97181" lon="0.07798">
        <ele>1623.52</ele>
        <time>2020-05-31T09:29:44.000Z</time>
      </trkpt>
      <trkpt lat="42.97174" lon="0.07788">
        <ele>1624.73</ele>
        <time>2020-05-31T09:30:14.000Z</time>
      </trkpt>
      <trkpt lat="42.97164" lon="0.07778">
        <ele>1626.73</ele>
        <time>2020-05-31T09:30:44.000Z</time>
      </trkpt>
      <trkpt lat="42.97153" lon="0.07762">
        <ele>1628.92</ele>
        <time>2020-05-31T09:31:14.000Z</time>
      </trkpt>
      <trkpt lat="42.97147" lon="0.07747">
        <ele>1636.67</ele>
        <time>2020-05-31T09:31:44.000Z</time>
      </trkpt>
      <trkpt lat="42.97143" lon="0.07734">
        <ele>1639.71</ele>
        <time>2020-05-31T09:33:57.000Z</time>
      </trkpt>
      <trkpt lat="42.97142" lon="0.077">
        <ele>1638.67</ele>
        <time>2020-05-31T09:34:27.000Z</time>
      </trkpt>
      <trkpt lat="42.97136" lon="0.0767">
        <ele>1630.75</ele>
        <time>2020-05-31T09:34:57.000Z</time>
      </trkpt>
      <trkpt lat="42.97127" lon="0.07655">
        <ele>1630.98</ele>
        <time>2020-05-31T09:35:27.000Z</time>
      </trkpt>
      <trkpt lat="42.9712" lon="0.07647">
        <ele>1633.71</ele>
        <time>2020-05-31T09:35:57.000Z</time>
      </trkpt>
      <trkpt lat="42.97112" lon="0.07642">
        <ele>1638.48</ele>
        <time>2020-05-31T09:36:43.000Z</time>
      </trkpt>
      <trkpt lat="42.97113" lon="0.07641">
        <ele>1640.71</ele>
        <time>2020-05-31T09:36:49.000Z</time>
      </trkpt>
      <trkpt lat="42.97124" lon="0.07654">
        <ele>1640.98</ele>
        <time>2020-05-31T10:50:32.000Z</time>
      </trkpt>
      <trkpt lat="42.9714" lon="0.07686">
        <ele>1637.57</ele>
        <time>2020-05-31T10:51:02.000Z</time>
      </trkpt>
      <trkpt lat="42.97142" lon="0.07721">
        <ele>1639.79</ele>
        <time>2020-05-31T10:51:32.000Z</time>
      </trkpt>
      <trkpt lat="42.97143" lon="0.07745">
        <ele>1630</ele>
        <time>2020-05-31T10:52:02.000Z</time>
      </trkpt>
      <trkpt lat="42.9715" lon="0.07754">
        <ele>1626.79</ele>
        <time>2020-05-31T10:52:32.000Z</time>
      </trkpt>
      <trkpt lat="42.9715" lon="0.07766">
        <ele>1625.73</ele>
        <time>2020-05-31T10:53:03.000Z</time>
      </trkpt>
      <trkpt lat="42.97175" lon="0.07783">
        <ele>1645.89</ele>
        <time>2020-05-31T10:53:34.000Z</time>
      </trkpt>
      <trkpt lat="42.97178" lon="0.07795">
        <ele>1640.79</ele>
        <time>2020-05-31T10:54:10.000Z</time>
      </trkpt>
      <trkpt lat="42.97203" lon="0.07821">
        <ele>1631.18</ele>
        <time>2020-05-31T10:54:40.000Z</time>
      </trkpt>
      <trkpt lat="42.9722" lon="0.07836">
        <ele>1624.07</ele>
        <time>2020-05-31T10:55:10.000Z</time>
      </trkpt>
      <trkpt lat="42.97227" lon="0.07852">
        <ele>1618.73</ele>
        <time>2020-05-31T10:55:40.000Z</time>
      </trkpt>
      <trkpt lat="42.97232" lon="0.0787">
        <ele>1613.77</ele>
        <time>2020-05-31T10:56:10.000Z</time>
      </trkpt>
      <trkpt lat="42.97247" lon="0.07889">
        <ele>1612.94</ele>
        <time>2020-05-31T10:56:40.000Z</time>
      </trkpt>
      <trkpt lat="42.97246" lon="0.07922">
        <ele>1607.09</ele>
        <time>2020-05-31T10:57:10.000Z</time>
      </trkpt>
      <trkpt lat="42.97248" lon="0.07937">
        <ele>1605</ele>
        <time>2020-05-31T10:57:40.000Z</time>
      </trkpt>
      <trkpt lat="42.97252" lon="0.0795">
        <ele>1604.98</ele>
        <time>2020-05-31T10:58:28.000Z</time>
      </trkpt>
      <trkpt lat="42.97254" lon="0.07963">
        <ele>1601.81</ele>
        <time>2020-05-31T10:58:58.000Z</time>
      </trkpt>
      <trkpt lat="42.97264" lon="0.07975">
        <ele>1594.74</ele>
        <time>2020-05-31T10:59:28.000Z</time>
      </trkpt>
      <trkpt lat="42.97272" lon="0.07986">
        <ele>1590.98</ele>
        <time>2020-05-31T11:00:36.000Z</time>
      </trkpt>
      <trkpt lat="42.97282" lon="0.07986">
        <ele>1582.73</ele>
        <time>2020-05-31T11:01:16.000Z</time>
      </trkpt>
      <trkpt lat="42.97279" lon="0.08001">
        <ele>1578.8</ele>
        <time>2020-05-31T11:03:48.000Z</time>
      </trkpt>
      <trkpt lat="42.97279" lon="0.08014">
        <ele>1580.83</ele>
        <time>2020-05-31T11:05:17.000Z</time>
      </trkpt>
      <trkpt lat="42.97288" lon="0.08035">
        <ele>1584.73</ele>
        <time>2020-05-31T11:05:47.000Z</time>
      </trkpt>
      <trkpt lat="42.97291" lon="0.08057">
        <ele>1582.25</ele>
        <time>2020-05-31T11:06:17.000Z</time>
      </trkpt>
      <trkpt lat="42.97297" lon="0.08069">
        <ele>1572.73</ele>
        <time>2020-05-31T11:07:09.000Z</time>
      </trkpt>
      <trkpt lat="42.97305" lon="0.08107">
        <ele>1578.78</ele>
        <time>2020-05-31T11:07:39.000Z</time>
      </trkpt>
      <trkpt lat="42.97298" lon="0.08124">
        <ele>1579.75</ele>
        <time>2020-05-31T11:08:09.000Z</time>
      </trkpt>
      <trkpt lat="42.97294" lon="0.08147">
        <ele>1571</ele>
        <time>2020-05-31T11:08:39.000Z</time>
      </trkpt>
      <trkpt lat="42.97289" lon="0.08172">
        <ele>1567.92</ele>
        <time>2020-05-31T11:09:09.000Z</time>
      </trkpt>
      <trkpt lat="42.97287" lon="0.08197">
        <ele>1564.05</ele>
        <time>2020-05-31T11:09:39.000Z</time>
      </trkpt>
      <trkpt lat="42.97278" lon="0.0822">
        <ele>1562.04</ele>
        <time>2020-05-31T11:10:09.000Z</time>
      </trkpt>
      <trkpt lat="42.97264" lon="0.08233">
        <ele>1556.57</ele>
        <time>2020-05-31T11:10:39.000Z</time>
      </trkpt>
      <trkpt lat="42.9725" lon="0.08258">
        <ele>1559.71</ele>
        <time>2020-05-31T11:11:09.000Z</time>
      </trkpt>
      <trkpt lat="42.97241" lon="0.08278">
        <ele>1549.77</ele>
        <time>2020-05-31T11:11:39.000Z</time>
      </trkpt>
      <trkpt lat="42.97232" lon="0.08302">
        <ele>1544.72</ele>
        <time>2020-05-31T11:12:09.000Z</time>
      </trkpt>
      <trkpt lat="42.97224" lon="0.08327">
        <ele>1542.73</ele>
        <time>2020-05-31T11:12:39.000Z</time>
      </trkpt>
      <trkpt lat="42.97218" lon="0.08345">
        <ele>1533</ele>
        <time>2020-05-31T11:13:09.000Z</time>
      </trkpt>
      <trkpt lat="42.97206" lon="0.0835">
        <ele>1530.74</ele>
        <time>2020-05-31T11:13:39.000Z</time>
      </trkpt>
      <trkpt lat="42.97194" lon="0.08351">
        <ele>1530.79</ele>
        <time>2020-05-31T11:14:09.000Z</time>
      </trkpt>
      <trkpt lat="42.97187" lon="0.0836">
        <ele>1528.85</ele>
        <time>2020-05-31T11:14:56.000Z</time>
      </trkpt>
      <trkpt lat="42.97178" lon="0.0836">
        <ele>1510.54</ele>
        <time>2020-05-31T11:16:07.000Z</time>
      </trkpt>
      <trkpt lat="42.97172" lon="0.0837">
        <ele>1509.21</ele>
        <time>2020-05-31T11:16:46.000Z</time>
      </trkpt>
      <trkpt lat="42.97164" lon="0.08392">
        <ele>1506.79</ele>
        <time>2020-05-31T11:17:16.000Z</time>
      </trkpt>
      <trkpt lat="42.97156" lon="0.08402">
        <ele>1500.57</ele>
        <time>2020-05-31T11:19:23.000Z</time>
      </trkpt>
      <trkpt lat="42.97142" lon="0.08415">
        <ele>1499.48</ele>
        <time>2020-05-31T11:19:53.000Z</time>
      </trkpt>
      <trkpt lat="42.97126" lon="0.08431">
        <ele>1495.49</ele>
        <time>2020-05-31T11:20:23.000Z</time>
      </trkpt>
      <trkpt lat="42.97104" lon="0.08438">
        <ele>1489.72</ele>
        <time>2020-05-31T11:20:53.000Z</time>
      </trkpt>
      <trkpt lat="42.97077" lon="0.0845">
        <ele>1491.79</ele>
        <time>2020-05-31T11:21:23.000Z</time>
      </trkpt>
      <trkpt lat="42.97067" lon="0.08453">
        <ele>1487.73</ele>
        <time>2020-05-31T11:21:53.000Z</time>
      </trkpt>
      <trkpt lat="42.97057" lon="0.08457">
        <ele>1486.41</ele>
        <time>2020-05-31T11:22:27.000Z</time>
      </trkpt>
      <trkpt lat="42.97035" lon="0.08473">
        <ele>1479.71</ele>
        <time>2020-05-31T11:22:57.000Z</time>
      </trkpt>
      <trkpt lat="42.97027" lon="0.08487">
        <ele>1479.72</ele>
        <time>2020-05-31T11:23:27.000Z</time>
      </trkpt>
      <trkpt lat="42.97026" lon="0.08501">
        <ele>1475.97</ele>
        <time>2020-05-31T11:24:39.000Z</time>
      </trkpt>
      <trkpt lat="42.97036" lon="0.08535">
        <ele>1473.93</ele>
        <time>2020-05-31T11:25:09.000Z</time>
      </trkpt>
      <trkpt lat="42.97043" lon="0.08565">
        <ele>1473.35</ele>
        <time>2020-05-31T11:25:39.000Z</time>
      </trkpt>
      <trkpt lat="42.97044" lon="0.08578">
        <ele>1469.78</ele>
        <time>2020-05-31T11:26:09.000Z</time>
      </trkpt>
      <trkpt lat="42.97044" lon="0.0859">
        <ele>1463.08</ele>
        <time>2020-05-31T11:26:45.000Z</time>
      </trkpt>
      <trkpt lat="42.97042" lon="0.08616">
        <ele>1454.03</ele>
        <time>2020-05-31T11:27:15.000Z</time>
      </trkpt>
      <trkpt lat="42.97045" lon="0.0863">
        <ele>1450.75</ele>
        <time>2020-05-31T11:27:45.000Z</time>
      </trkpt>
      <trkpt lat="42.97052" lon="0.08651">
        <ele>1445.81</ele>
        <time>2020-05-31T11:28:15.000Z</time>
      </trkpt>
      <trkpt lat="42.97041" lon="0.0869">
        <ele>1440.72</ele>
        <time>2020-05-31T11:28:45.000Z</time>
      </trkpt>
      <trkpt lat="42.97036" lon="0.08706">
        <ele>1440.93</ele>
        <time>2020-05-31T11:29:15.000Z</time>
      </trkpt>
      <trkpt lat="42.97029" lon="0.08716">
        <ele>1433.55</ele>
        <time>2020-05-31T11:30:00.000Z</time>
      </trkpt>
      <trkpt lat="42.97025" lon="0.08733">
        <ele>1433.53</ele>
        <time>2020-05-31T11:30:30.000Z</time>
      </trkpt>
      <trkpt lat="42.97022" lon="0.08752">
        <ele>1427.96</ele>
        <time>2020-05-31T11:31:00.000Z</time>
      </trkpt>
      <trkpt lat="42.9702" lon="0.08769">
        <ele>1425.72</ele>
        <time>2020-05-31T11:31:30.000Z</time>
      </trkpt>
      <trkpt lat="42.97019" lon="0.088">
        <ele>1414.56</ele>
        <time>2020-05-31T11:32:00.000Z</time>
      </trkpt>
      <trkpt lat="42.97021" lon="0.08813">
        <ele>1402.06</ele>
        <time>2020-05-31T11:34:44.000Z</time>
      </trkpt>
      <trkpt lat="42.97023" lon="0.0883">
        <ele>1401.72</ele>
        <time>2020-05-31T11:35:14.000Z</time>
      </trkpt>
      <trkpt lat="42.97024" lon="0.08843">
        <ele>1403.72</ele>
        <time>2020-05-31T11:35:44.000Z</time>
      </trkpt>
      <trkpt lat="42.97025" lon="0.08857">
        <ele>1400.97</ele>
        <time>2020-05-31T11:36:31.000Z</time>
      </trkpt>
      <trkpt lat="42.97024" lon="0.08874">
        <ele>1392.72</ele>
        <time>2020-05-31T11:37:01.000Z</time>
      </trkpt>
      <trkpt lat="42.97022" lon="0.08901">
        <ele>1380.8</ele>
        <time>2020-05-31T11:37:31.000Z</time>
      </trkpt>
      <trkpt lat="42.97014" lon="0.08919">
        <ele>1375.06</ele>
        <time>2020-05-31T11:38:01.000Z</time>
      </trkpt>
      <trkpt lat="42.97013" lon="0.0894">
        <ele>1374.9</ele>
        <time>2020-05-31T11:38:31.000Z</time>
      </trkpt>
      <trkpt lat="42.97003" lon="0.08943">
        <ele>1367.97</ele>
        <time>2020-05-31T11:39:33.000Z</time>
      </trkpt>
      <trkpt lat="42.96988" lon="0.08965">
        <ele>1357.92</ele>
        <time>2020-05-31T11:40:03.000Z</time>
      </trkpt>
      <trkpt lat="42.96991" lon="0.08979">
        <ele>1351.8</ele>
        <time>2020-05-31T11:40:39.000Z</time>
      </trkpt>
      <trkpt lat="42.96993" lon="0.09021">
        <ele>1340.4</ele>
        <time>2020-05-31T11:41:09.000Z</time>
      </trkpt>
      <trkpt lat="42.97001" lon="0.09046">
        <ele>1338.82</ele>
        <time>2020-05-31T11:41:39.000Z</time>
      </trkpt>
      <trkpt lat="42.97004" lon="0.09074">
        <ele>1334.75</ele>
        <time>2020-05-31T11:42:09.000Z</time>
      </trkpt>
      <trkpt lat="42.97007" lon="0.09086">
        <ele>1334.47</ele>
        <time>2020-05-31T11:42:48.000Z</time>
      </trkpt>
      <trkpt lat="42.97016" lon="0.09111">
        <ele>1329.72</ele>
        <time>2020-05-31T11:43:18.000Z</time>
      </trkpt>
      <trkpt lat="42.97026" lon="0.09128">
        <ele>1331.67</ele>
        <time>2020-05-31T11:43:48.000Z</time>
      </trkpt>
      <trkpt lat="42.97031" lon="0.09141">
        <ele>1326.65</ele>
        <time>2020-05-31T11:44:24.000Z</time>
      </trkpt>
      <trkpt lat="42.97046" lon="0.09182">
        <ele>1327.54</ele>
        <time>2020-05-31T11:44:54.000Z</time>
      </trkpt>
      <trkpt lat="42.97055" lon="0.09208">
        <ele>1323.72</ele>
        <time>2020-05-31T11:45:24.000Z</time>
      </trkpt>
      <trkpt lat="42.9706" lon="0.09222">
        <ele>1317.25</ele>
        <time>2020-05-31T11:47:04.000Z</time>
      </trkpt>
      <trkpt lat="42.97065" lon="0.09248">
        <ele>1308.77</ele>
        <time>2020-05-31T11:47:34.000Z</time>
      </trkpt>
      <trkpt lat="42.97069" lon="0.09262">
        <ele>1306.72</ele>
        <time>2020-05-31T11:49:25.000Z</time>
      </trkpt>
      <trkpt lat="42.97068" lon="0.09278">
        <ele>1312.72</ele>
        <time>2020-05-31T11:49:55.000Z</time>
      </trkpt>
      <trkpt lat="42.97072" lon="0.0929">
        <ele>1300.05</ele>
        <time>2020-05-31T11:51:41.000Z</time>
      </trkpt>
      <trkpt lat="42.97073" lon="0.09304">
        <ele>1299.22</ele>
        <time>2020-05-31T11:52:44.000Z</time>
      </trkpt>
      <trkpt lat="42.97058" lon="0.09327">
        <ele>1286.19</ele>
        <time>2020-05-31T11:53:14.000Z</time>
      </trkpt>
      <trkpt lat="42.97038" lon="0.09321">
        <ele>1279.95</ele>
        <time>2020-05-31T11:53:44.000Z</time>
      </trkpt>
      <trkpt lat="42.97042" lon="0.09332">
        <ele>1272.91</ele>
        <time>2020-05-31T11:54:15.000Z</time>
      </trkpt>
      <trkpt lat="42.97043" lon="0.09349">
        <ele>1266.71</ele>
        <time>2020-05-31T11:54:45.000Z</time>
      </trkpt>
      <trkpt lat="42.97045" lon="0.09361">
        <ele>1260.48</ele>
        <time>2020-05-31T11:55:21.000Z</time>
      </trkpt>
      <trkpt lat="42.97048" lon="0.09374">
        <ele>1256.21</ele>
        <time>2020-05-31T11:55:51.000Z</time>
      </trkpt>
      <trkpt lat="42.97055" lon="0.09384">
        <ele>1253.17</ele>
        <time>2020-05-31T11:56:23.000Z</time>
      </trkpt>
      <trkpt lat="42.97065" lon="0.09398">
        <ele>1254.71</ele>
        <time>2020-05-31T11:56:53.000Z</time>
      </trkpt>
      <trkpt lat="42.97072" lon="0.09421">
        <ele>1254.71</ele>
        <time>2020-05-31T11:57:23.000Z</time>
      </trkpt>
      <trkpt lat="42.97082" lon="0.09462">
        <ele>1246.72</ele>
        <time>2020-05-31T11:57:53.000Z</time>
      </trkpt>
      <trkpt lat="42.97079" lon="0.0948">
        <ele>1244.73</ele>
        <time>2020-05-31T11:58:23.000Z</time>
      </trkpt>
      <trkpt lat="42.97083" lon="0.09492">
        <ele>1247.15</ele>
        <time>2020-05-31T11:59:04.000Z</time>
      </trkpt>
      <trkpt lat="42.97085" lon="0.09505">
        <ele>1243.71</ele>
        <time>2020-05-31T11:59:34.000Z</time>
      </trkpt>
      <trkpt lat="42.97096" lon="0.09543">
        <ele>1219.12</ele>
        <time>2020-05-31T12:00:04.000Z</time>
      </trkpt>
      <trkpt lat="42.97103" lon="0.09564">
        <ele>1216.97</ele>
        <time>2020-05-31T12:02:02.000Z</time>
      </trkpt>
      <trkpt lat="42.97109" lon="0.09591">
        <ele>1209.97</ele>
        <time>2020-05-31T12:02:32.000Z</time>
      </trkpt>
      <trkpt lat="42.97116" lon="0.09601">
        <ele>1203.03</ele>
        <time>2020-05-31T12:03:05.000Z</time>
      </trkpt>
      <trkpt lat="42.97118" lon="0.09614">
        <ele>1197.25</ele>
        <time>2020-05-31T12:04:00.000Z</time>
      </trkpt>
      <trkpt lat="42.97129" lon="0.09646">
        <ele>1188.52</ele>
        <time>2020-05-31T12:04:30.000Z</time>
      </trkpt>
      <trkpt lat="42.97119" lon="0.09653">
        <ele>1182.9</ele>
        <time>2020-05-31T12:05:00.000Z</time>
      </trkpt>
      <trkpt lat="42.97118" lon="0.09665">
        <ele>1184.13</ele>
        <time>2020-05-31T12:05:36.000Z</time>
      </trkpt>
      <trkpt lat="42.97111" lon="0.09679">
        <ele>1174.65</ele>
        <time>2020-05-31T12:06:06.000Z</time>
      </trkpt>
      <trkpt lat="42.971" lon="0.0968">
        <ele>1175.46</ele>
        <time>2020-05-31T12:07:36.000Z</time>
      </trkpt>
      <trkpt lat="42.97065" lon="0.09669">
        <ele>1176.73</ele>
        <time>2020-05-31T12:08:06.000Z</time>
      </trkpt>
      <trkpt lat="42.97046" lon="0.09666">
        <ele>1168.02</ele>
        <time>2020-05-31T12:08:36.000Z</time>
      </trkpt>
      <trkpt lat="42.9702" lon="0.09672">
        <ele>1161.96</ele>
        <time>2020-05-31T12:09:06.000Z</time>
      </trkpt>
      <trkpt lat="42.97003" lon="0.09645">
        <ele>1162.15</ele>
        <time>2020-05-31T12:09:36.000Z</time>
      </trkpt>
      <trkpt lat="42.96984" lon="0.09636">
        <ele>1161.2</ele>
        <time>2020-05-31T12:10:06.000Z</time>
      </trkpt>
      <trkpt lat="42.96973" lon="0.09619">
        <ele>1152.64</ele>
        <time>2020-05-31T12:10:36.000Z</time>
      </trkpt>
      <trkpt lat="42.96952" lon="0.09603">
        <ele>1156.88</ele>
        <time>2020-05-31T12:11:06.000Z</time>
      </trkpt>
      <trkpt lat="42.96929" lon="0.09602">
        <ele>1143.26</ele>
        <time>2020-05-31T12:11:36.000Z</time>
      </trkpt>
      <trkpt lat="42.96906" lon="0.09594">
        <ele>1140.77</ele>
        <time>2020-05-31T12:12:06.000Z</time>
      </trkpt>
      <trkpt lat="42.96889" lon="0.09578">
        <ele>1132.76</ele>
        <time>2020-05-31T12:12:36.000Z</time>
      </trkpt>
      <trkpt lat="42.96869" lon="0.09568">
        <ele>1133.72</ele>
        <time>2020-05-31T12:13:06.000Z</time>
      </trkpt>
      <trkpt lat="42.96844" lon="0.09569">
        <ele>1129.75</ele>
        <time>2020-05-31T12:13:36.000Z</time>
      </trkpt>
      <trkpt lat="42.96821" lon="0.09562">
        <ele>1124.47</ele>
        <time>2020-05-31T12:14:06.000Z</time>
      </trkpt>
      <trkpt lat="42.968" lon="0.09544">
        <ele>1123.23</ele>
        <time>2020-05-31T12:14:36.000Z</time>
      </trkpt>
      <trkpt lat="42.96784" lon="0.0954">
        <ele>1109.65</ele>
        <time>2020-05-31T12:15:06.000Z</time>
      </trkpt>
      <trkpt lat="42.96781" lon="0.09527">
        <ele>1108.96</ele>
        <time>2020-05-31T12:16:22.000Z</time>
      </trkpt>
      <trkpt lat="42.96764" lon="0.09513">
        <ele>1115.37</ele>
        <time>2020-05-31T12:16:52.000Z</time>
      </trkpt>
      <trkpt lat="42.96746" lon="0.095">
        <ele>1108.84</ele>
        <time>2020-05-31T12:17:22.000Z</time>
      </trkpt>
      <trkpt lat="42.96736" lon="0.09484">
        <ele>1095.21</ele>
        <time>2020-05-31T12:17:52.000Z</time>
      </trkpt>
      <trkpt lat="42.96713" lon="0.09482">
        <ele>1093.76</ele>
        <time>2020-05-31T12:18:22.000Z</time>
      </trkpt>
      <trkpt lat="42.96691" lon="0.09471">
        <ele>1092.76</ele>
        <time>2020-05-31T12:18:52.000Z</time>
      </trkpt>
      <trkpt lat="42.96675" lon="0.09477">
        <ele>1087.08</ele>
        <time>2020-05-31T12:19:22.000Z</time>
      </trkpt>
      <trkpt lat="42.96664" lon="0.09439">
        <ele>1083.34</ele>
        <time>2020-05-31T12:19:52.000Z</time>
      </trkpt>
      <trkpt lat="42.96638" lon="0.09419">
        <ele>1086.89</ele>
        <time>2020-05-31T12:20:22.000Z</time>
      </trkpt>
      <trkpt lat="42.96625" lon="0.09392">
        <ele>1073.75</ele>
        <time>2020-05-31T12:20:52.000Z</time>
      </trkpt>
      <trkpt lat="42.96602" lon="0.09378">
        <ele>1071.76</ele>
        <time>2020-05-31T12:21:22.000Z</time>
      </trkpt>
      <trkpt lat="42.96604" lon="0.09392">
        <ele>1062.71</ele>
        <time>2020-05-31T12:21:52.000Z</time>
      </trkpt>
      <trkpt lat="42.96608" lon="0.09427">
        <ele>1062.86</ele>
        <time>2020-05-31T12:22:22.000Z</time>
      </trkpt>
      <trkpt lat="42.96628" lon="0.09442">
        <ele>1061.88</ele>
        <time>2020-05-31T12:22:52.000Z</time>
      </trkpt>
      <trkpt lat="42.96625" lon="0.09444">
        <ele>1062.74</ele>
        <time>2020-05-31T12:24:29.000Z</time>
      </trkpt>
    </trkseg>
  </trk>
</gpx>